Artemis — SWZE — position and weather

sailwx.info

Track history (hours):
 
Tides and Currents Weather Stations Pressure Air Temp Water Temp Dewpoint Dewpoint Depression Visibility Wind Speed Wind Dir Waves Ship Positions

Artemis

Last reported at 2015-Aug-04 06:33 UTC. Time now 2015-Aug-04 07:27 UTC.
Position N 37°06' E 025°01'.

Length 89 m.

Type: Ship. MMSI: 237026300.

Date/timePositionNaut miles runAvg speedWind from/ knotsBaromVisibWave heightAir tempDewpointWater temp
2015-Aug-04 06:33N 37°06' E 025°01'4 3.9
2015-Aug-04 05:34N 37°08' E 025°06'1414.3
2015-Aug-04 04:34N 37°21' E 024°60'6 5.7
2015-Aug-04 03:33N 37°27' E 024°57'0 0.0
2015-Aug-04 02:33N 37°27' E 024°57'0 0.0
2015-Aug-04 01:33N 37°27' E 024°57'0 0.0
2015-Aug-04 00:33N 37°27' E 024°57'0 0.0
2015-Aug-03 23:33N 37°27' E 024°57'0 0.0
2015-Aug-03 22:33N 37°27' E 024°57'0 0.0
2015-Aug-03 21:33N 37°27' E 024°57'0 0.0
2015-Aug-03 20:32N 37°27' E 024°57'0 0.2
2015-Aug-03 19:32N 37°26' E 024°57'9 9.7
2015-Aug-03 18:33N 37°31' E 024°46'32 3.5
2015-Aug-03 09:16N 37°38' E 024°07'31 7.5
2015-Aug-03 05:12N 37°30' E 024°44'1014.4
2015-Aug-03 04:32N 37°30' E 024°56'4 4.0
2015-Aug-03 03:33N 37°27' E 024°57'0 0.0
2015-Aug-03 02:33N 37°27' E 024°57'0 0.0
2015-Aug-03 01:33N 37°27' E 024°57'0 0.0
2015-Aug-03 00:33N 37°27' E 024°57'0 0.0
2015-Aug-02 23:33N 37°27' E 024°57'0 0.0
2015-Aug-02 22:33N 37°27' E 024°57'0 0.0
2015-Aug-02 21:33N 37°27' E 024°57'0 0.0
2015-Aug-02 20:33N 37°27' E 024°57'1 0.9
2015-Aug-02 19:34N 37°26' E 024°57'1414.1
2015-Aug-02 18:34N 37°13' E 025°04'7 7.0
2015-Aug-02 17:34N 37°06' E 025°07'1313.2
2015-Aug-02 16:32N 37°10' E 024°50'8 0.8
2015-Aug-02 06:33N 37°06' E 024°59'6 6.2
2015-Aug-02 05:33N 37°07' E 025°07'1514.5
2015-Aug-02 04:33N 37°21' E 025°00'7 6.7
2015-Aug-02 03:33N 37°27' E 024°57'0 0.0
2015-Aug-02 02:33N 37°27' E 024°57'0 0.0
2015-Aug-02 01:33N 37°27' E 024°57'0 0.0
2015-Aug-02 00:33N 37°27' E 024°57'0 0.0
2015-Aug-01 23:33N 37°27' E 024°57'0 0.0
2015-Aug-01 22:33N 37°27' E 024°57'0 0.0
2015-Aug-01 21:33N 37°27' E 024°57'0 0.0
2015-Aug-01 20:33N 37°27' E 024°57'0 0.0
2015-Aug-01 19:33N 37°27' E 024°57'0 0.0
2015-Aug-01 18:33N 37°27' E 024°57'0 0.0
2015-Aug-01 17:32N 37°27' E 024°57'0 0.0
2015-Aug-01 16:33N 37°27' E 024°57'0 0.0
2015-Aug-01 15:31N 37°27' E 024°57'0 0.0
2015-Aug-01 14:30N 37°27' E 024°57'6 6.6
2015-Aug-01 13:33N 37°21' E 025°00'1414.2
2015-Aug-01 12:32N 37°08' E 025°07'5 5.1
2015-Aug-01 11:33N 37°10' E 025°12'9 8.7
2015-Aug-01 10:33N 37°06' E 025°22'30 9.8
2015-Aug-01 07:32N 36°39' E 025°07'9 0.6
2015-Jul-31 17:16N 36°38' E 024°56'6 7.8
2015-Jul-31 16:32N 36°37' E 025°03'21 9.0
2015-Jul-31 14:15N 36°55' E 025°17'1015.0
2015-Jul-31 13:33N 37°05' E 025°20'4 4.5
2015-Jul-31 12:34N 37°09' E 025°18'8 8.2
2015-Jul-31 11:32N 37°05' E 025°09'1313.5
2015-Jul-31 10:33N 37°17' E 025°02'1010.1
2015-Jul-31 09:33N 37°26' E 024°57'6 0.3
2015-Jul-30 10:30N 37°31' E 024°51'6 6.3
2015-Jul-30 09:32N 37°26' E 024°56'8 8.5
2015-Jul-30 08:34N 37°20' E 024°50'38 2.4
2015-Jul-29 16:33N 36°47' E 024°26'1110.6
2015-Jul-29 15:34N 36°51' E 024°38'29 9.5
2015-Jul-29 12:34N 37°18' E 024°50'10 9.8
2015-Jul-29 11:31N 37°27' E 024°57'0 0.0
2015-Jul-29 10:10N 37°27' E 024°57'4 6.6
2015-Jul-29 09:33N 37°28' E 025°01'7 6.8
2015-Jul-29 08:33N 37°34' E 025°04'1414.2
2015-Jul-29 07:33N 37°45' E 024°52'4 1.9
2015-Jul-29 05:33N 37°42' E 024°55'1514.4
2015-Jul-29 04:32N 37°32' E 025°09'1111.3
2015-Jul-29 03:31N 37°27' E 024°57'0 0.0
2015-Jul-29 02:32N 37°27' E 024°57'0 0.0
2015-Jul-29 01:33N 37°27' E 024°57'0 0.0
2015-Jul-29 00:33N 37°27' E 024°57'0 0.0
2015-Jul-28 23:33N 37°27' E 024°57'0 0.0
2015-Jul-28 22:25N 37°27' E 024°57'0 0.0
2015-Jul-28 21:33N 37°27' E 024°57'0 0.0
2015-Jul-28 20:33N 37°27' E 024°57'0 0.0
2015-Jul-28 19:33N 37°27' E 024°57'1 1.3
2015-Jul-28 18:33N 37°26' E 024°58'1413.9
2015-Jul-28 17:33N 37°13' E 025°04'7 7.1
2015-Jul-28 16:33N 37°06' E 025°06'1414.5
2015-Jul-28 15:33N 37°07' E 024°48'8 0.9
2015-Jul-28 06:33N 37°06' E 024°59'6 6.1
2015-Jul-28 05:33N 37°07' E 025°06'1414.4
2015-Jul-28 04:33N 37°21' E 025°00'7 6.7
2015-Jul-28 03:34N 37°27' E 024°57'0 0.0
2015-Jul-28 02:34N 37°27' E 024°57'0 0.0
2015-Jul-28 01:33N 37°27' E 024°57'0 0.0
2015-Jul-28 00:33N 37°27' E 024°57'0 0.0
2015-Jul-27 23:33N 37°27' E 024°57'0 0.0
2015-Jul-27 22:31N 37°27' E 024°57'0 0.0
2015-Jul-27 21:33N 37°27' E 024°57'0 0.0
2015-Jul-27 20:33N 37°27' E 024°57'0 0.0
2015-Jul-27 19:34N 37°27' E 024°57'9 9.2
2015-Jul-27 18:33N 37°31' E 024°46'33 3.5
2015-Jul-27 09:07N 37°39' E 024°06'31 7.7
2015-Jul-27 05:10N 37°30' E 024°44'1014.3
2015-Jul-27 04:28N 37°30' E 024°56'4 3.6
2015-Jul-27 03:29N 37°27' E 024°57'0 0.0
2015-Jul-27 02:30N 37°27' E 024°57'0 0.0
2015-Jul-27 01:33N 37°27' E 024°57'0 0.0
2015-Jul-27 00:33N 37°27' E 024°57'0 0.0
2015-Jul-26 23:34N 37°27' E 024°57'0 0.0
2015-Jul-26 22:32N 37°27' E 024°57'0 0.0
2015-Jul-26 21:33N 37°27' E 024°57'0 0.0
2015-Jul-26 20:30N 37°27' E 024°57'0 0.0
2015-Jul-26 19:33N 37°27' E 024°57'1 1.4
2015-Jul-26 18:34N 37°26' E 024°58'1514.6
2015-Jul-26 17:32N 37°12' E 025°05'5 5.6
2015-Jul-26 16:33N 37°06' E 025°05'1714.4
2015-Jul-26 15:22N 37°07' E 024°44'23 7.4
2015-Jul-26 12:17N 36°46' E 024°33'7 9.0
2015-Jul-26 11:33N 36°43' E 024°26'36 7.2
2015-Jul-26 06:33N 37°06' E 025°00'5 4.9
2015-Jul-26 05:33N 37°08' E 025°06'1414.2
2015-Jul-26 04:33N 37°21' E 024°60'6 5.7
2015-Jul-26 03:33N 37°27' E 024°57'0 0.0
2015-Jul-26 02:33N 37°27' E 024°57'0 0.0
2015-Jul-26 01:33N 37°27' E 024°57'0 0.0
2015-Jul-26 00:33N 37°27' E 024°57'0 0.0
2015-Jul-25 23:31N 37°27' E 024°57'0 0.0
2015-Jul-25 22:33N 37°27' E 024°57'0 0.0
2015-Jul-25 21:31N 37°27' E 024°57'0 0.0
2015-Jul-25 20:33N 37°27' E 024°57'0 0.0
2015-Jul-25 19:33N 37°27' E 024°57'0 0.0
2015-Jul-25 18:33N 37°27' E 024°57'0 0.0
2015-Jul-25 17:32N 37°27' E 024°57'0 0.0
2015-Jul-25 16:33N 37°27' E 024°57'0 0.0
2015-Jul-25 15:33N 37°27' E 024°57'0 0.0
2015-Jul-25 14:33N 37°27' E 024°57'2 1.9
2015-Jul-25 13:33N 37°25' E 024°58'1414.4
2015-Jul-25 12:33N 37°12' E 025°05'6 5.5
2015-Jul-25 11:33N 37°08' E 025°10'1010.1
2015-Jul-25 10:34N 37°06' E 025°22'2510.4
2015-Jul-25 08:09N 36°42' E 025°15'710.2
2015-Jul-25 07:30N 36°39' E 025°07'  
Track history (hours):
 
Tides and Currents Weather Stations Pressure Air Temp Water Temp Dewpoint Dewpoint Depression Visibility Wind Speed Wind Dir Waves Ship Positions

Artemis

Last reported at 2015-Aug-04 06:33 UTC. Time now 2015-Aug-04 07:27 UTC.
Position N 37°06' E 025°01'.

Length 89 m.

Type: Ship. MMSI: 237026300.

Date/timePositionNaut miles runAvg speedWind from/ knotsBaromVisibWave heightAir tempDewpointWater temp
2015-Aug-04 06:33N 37°06' E 025°01'4 3.9
2015-Aug-04 05:34N 37°08' E 025°06'1414.3
2015-Aug-04 04:34N 37°21' E 024°60'6 5.7
2015-Aug-04 03:33N 37°27' E 024°57'0 0.0
2015-Aug-04 02:33N 37°27' E 024°57'0 0.0
2015-Aug-04 01:33N 37°27' E 024°57'0 0.0
2015-Aug-04 00:33N 37°27' E 024°57'0 0.0
2015-Aug-03 23:33N 37°27' E 024°57'0 0.0
2015-Aug-03 22:33N 37°27' E 024°57'0 0.0
2015-Aug-03 21:33N 37°27' E 024°57'0 0.0
2015-Aug-03 20:32N 37°27' E 024°57'0 0.2
2015-Aug-03 19:32N 37°26' E 024°57'9 9.7
2015-Aug-03 18:33N 37°31' E 024°46'32 3.5
2015-Aug-03 09:16N 37°38' E 024°07'31 7.5
2015-Aug-03 05:12N 37°30' E 024°44'1014.4
2015-Aug-03 04:32N 37°30' E 024°56'4 4.0
2015-Aug-03 03:33N 37°27' E 024°57'0 0.0
2015-Aug-03 02:33N 37°27' E 024°57'0 0.0
2015-Aug-03 01:33N 37°27' E 024°57'0 0.0
2015-Aug-03 00:33N 37°27' E 024°57'0 0.0
2015-Aug-02 23:33N 37°27' E 024°57'0 0.0
2015-Aug-02 22:33N 37°27' E 024°57'0 0.0
2015-Aug-02 21:33N 37°27' E 024°57'0 0.0
2015-Aug-02 20:33N 37°27' E 024°57'1 0.9
2015-Aug-02 19:34N 37°26' E 024°57'1414.1
2015-Aug-02 18:34N 37°13' E 025°04'7 7.0
2015-Aug-02 17:34N 37°06' E 025°07'1313.2
2015-Aug-02 16:32N 37°10' E 024°50'8 0.8
2015-Aug-02 06:33N 37°06' E 024°59'6 6.2
2015-Aug-02 05:33N 37°07' E 025°07'1514.5
2015-Aug-02 04:33N 37°21' E 025°00'7 6.7
2015-Aug-02 03:33N 37°27' E 024°57'0 0.0
2015-Aug-02 02:33N 37°27' E 024°57'0 0.0
2015-Aug-02 01:33N 37°27' E 024°57'0 0.0
2015-Aug-02 00:33N 37°27' E 024°57'0 0.0
2015-Aug-01 23:33N 37°27' E 024°57'0 0.0
2015-Aug-01 22:33N 37°27' E 024°57'0 0.0
2015-Aug-01 21:33N 37°27' E 024°57'0 0.0
2015-Aug-01 20:33N 37°27' E 024°57'0 0.0
2015-Aug-01 19:33N 37°27' E 024°57'0 0.0
2015-Aug-01 18:33N 37°27' E 024°57'0 0.0
2015-Aug-01 17:32N 37°27' E 024°57'0 0.0
2015-Aug-01 16:33N 37°27' E 024°57'0 0.0
2015-Aug-01 15:31N 37°27' E 024°57'0 0.0
2015-Aug-01 14:30N 37°27' E 024°57'6 6.6
2015-Aug-01 13:33N 37°21' E 025°00'1414.2
2015-Aug-01 12:32N 37°08' E 025°07'5 5.1
2015-Aug-01 11:33N 37°10' E 025°12'9 8.7
2015-Aug-01 10:33N 37°06' E 025°22'30 9.8
2015-Aug-01 07:32N 36°39' E 025°07'9 0.6
2015-Jul-31 17:16N 36°38' E 024°56'6 7.8
2015-Jul-31 16:32N 36°37' E 025°03'21 9.0
2015-Jul-31 14:15N 36°55' E 025°17'1015.0
2015-Jul-31 13:33N 37°05' E 025°20'4 4.5
2015-Jul-31 12:34N 37°09' E 025°18'8 8.2
2015-Jul-31 11:32N 37°05' E 025°09'1313.5
2015-Jul-31 10:33N 37°17' E 025°02'1010.1
2015-Jul-31 09:33N 37°26' E 024°57'6 0.3
2015-Jul-30 10:30N 37°31' E 024°51'6 6.3
2015-Jul-30 09:32N 37°26' E 024°56'8 8.5
2015-Jul-30 08:34N 37°20' E 024°50'38 2.4
2015-Jul-29 16:33N 36°47' E 024°26'1110.6
2015-Jul-29 15:34N 36°51' E 024°38'29 9.5
2015-Jul-29 12:34N 37°18' E 024°50'10 9.8
2015-Jul-29 11:31N 37°27' E 024°57'0 0.0
2015-Jul-29 10:10N 37°27' E 024°57'4 6.6
2015-Jul-29 09:33N 37°28' E 025°01'7 6.8
2015-Jul-29 08:33N 37°34' E 025°04'1414.2
2015-Jul-29 07:33N 37°45' E 024°52'4 1.9
2015-Jul-29 05:33N 37°42' E 024°55'1514.4
2015-Jul-29 04:32N 37°32' E 025°09'1111.3
2015-Jul-29 03:31N 37°27' E 024°57'0 0.0
2015-Jul-29 02:32N 37°27' E 024°57'0 0.0
2015-Jul-29 01:33N 37°27' E 024°57'0 0.0
2015-Jul-29 00:33N 37°27' E 024°57'0 0.0
2015-Jul-28 23:33N 37°27' E 024°57'0 0.0
2015-Jul-28 22:25N 37°27' E 024°57'0 0.0
2015-Jul-28 21:33N 37°27' E 024°57'0 0.0
2015-Jul-28 20:33N 37°27' E 024°57'0 0.0
2015-Jul-28 19:33N 37°27' E 024°57'1 1.3
2015-Jul-28 18:33N 37°26' E 024°58'1413.9
2015-Jul-28 17:33N 37°13' E 025°04'7 7.1
2015-Jul-28 16:33N 37°06' E 025°06'1414.5
2015-Jul-28 15:33N 37°07' E 024°48'8 0.9
2015-Jul-28 06:33N 37°06' E 024°59'6 6.1
2015-Jul-28 05:33N 37°07' E 025°06'1414.4
2015-Jul-28 04:33N 37°21' E 025°00'7 6.7
2015-Jul-28 03:34N 37°27' E 024°57'0 0.0
2015-Jul-28 02:34N 37°27' E 024°57'0 0.0
2015-Jul-28 01:33N 37°27' E 024°57'0 0.0
2015-Jul-28 00:33N 37°27' E 024°57'0 0.0
2015-Jul-27 23:33N 37°27' E 024°57'0 0.0
2015-Jul-27 22:31N 37°27' E 024°57'0 0.0
2015-Jul-27 21:33N 37°27' E 024°57'0 0.0
2015-Jul-27 20:33N 37°27' E 024°57'0 0.0
2015-Jul-27 19:34N 37°27' E 024°57'9 9.2
2015-Jul-27 18:33N 37°31' E 024°46'33 3.5
2015-Jul-27 09:07N 37°39' E 024°06'31 7.7
2015-Jul-27 05:10N 37°30' E 024°44'1014.3
2015-Jul-27 04:28N 37°30' E 024°56'4 3.6
2015-Jul-27 03:29N 37°27' E 024°57'0 0.0
2015-Jul-27 02:30N 37°27' E 024°57'0 0.0
2015-Jul-27 01:33N 37°27' E 024°57'0 0.0
2015-Jul-27 00:33N 37°27' E 024°57'0 0.0
2015-Jul-26 23:34N 37°27' E 024°57'0 0.0
2015-Jul-26 22:32N 37°27' E 024°57'0 0.0
2015-Jul-26 21:33N 37°27' E 024°57'0 0.0
2015-Jul-26 20:30N 37°27' E 024°57'0 0.0
2015-Jul-26 19:33N 37°27' E 024°57'1 1.4
2015-Jul-26 18:34N 37°26' E 024°58'1514.6
2015-Jul-26 17:32N 37°12' E 025°05'5 5.6
2015-Jul-26 16:33N 37°06' E 025°05'1714.4
2015-Jul-26 15:22N 37°07' E 024°44'23 7.4
2015-Jul-26 12:17N 36°46' E 024°33'7 9.0
2015-Jul-26 11:33N 36°43' E 024°26'36 7.2
2015-Jul-26 06:33N 37°06' E 025°00'5 4.9
2015-Jul-26 05:33N 37°08' E 025°06'1414.2
2015-Jul-26 04:33N 37°21' E 024°60'6 5.7
2015-Jul-26 03:33N 37°27' E 024°57'0 0.0
2015-Jul-26 02:33N 37°27' E 024°57'0 0.0
2015-Jul-26 01:33N 37°27' E 024°57'0 0.0
2015-Jul-26 00:33N 37°27' E 024°57'0 0.0
2015-Jul-25 23:31N 37°27' E 024°57'0 0.0
2015-Jul-25 22:33N 37°27' E 024°57'0 0.0
2015-Jul-25 21:31N 37°27' E 024°57'0 0.0
2015-Jul-25 20:33N 37°27' E 024°57'0 0.0
2015-Jul-25 19:33N 37°27' E 024°57'0 0.0
2015-Jul-25 18:33N 37°27' E 024°57'0 0.0
2015-Jul-25 17:32N 37°27' E 024°57'0 0.0
2015-Jul-25 16:33N 37°27' E 024°57'0 0.0
2015-Jul-25 15:33N 37°27' E 024°57'0 0.0
2015-Jul-25 14:33N 37°27' E 024°57'2 1.9
2015-Jul-25 13:33N 37°25' E 024°58'1414.4
2015-Jul-25 12:33N 37°12' E 025°05'6 5.5
2015-Jul-25 11:33N 37°08' E 025°10'1010.1
2015-Jul-25 10:34N 37°06' E 025°22'2510.4
2015-Jul-25 08:09N 36°42' E 025°15'710.2
2015-Jul-25 07:30N 36°39' E 025°07'  

Dump ship's entire track history